Apus — XUCT7 — position and weather

sailwx.info

Track history (hours):
 
Tides and Currents Weather Stations Pressure Air Temp Water Temp Dewpoint Dewpoint Depression Visibility Wind Speed Wind Dir Waves Ship Positions

Apus

Last reported at 2014-Aug-23 20:23 UTC. Time now 2014-Sep-02 02:07 UTC.
Position N 31°21' E 032°20'.
Warning: this ship's position is 9 days out of date.

Length 93 m; draft 6.2 m.

Type: Cargo ship. MMSI: 515102000.

Date/timePositionNaut miles runAvg speedWind from/ knotsBaromVisibWave heightAir tempDewpointWater temp
2014-Aug-23 20:23N 31°21' E 032°20'70 3.9
2014-Aug-23 02:29N 32°14' E 031°27'3812.3
2014-Aug-22 23:26N 32°43' E 030°58'5312.7
2014-Aug-22 19:17N 33°23' E 030°16'1013.4
2014-Aug-22 18:33N 33°30' E 030°09'19612.8
2014-Aug-22 03:15N 35°59' E 027°33'1013.1
2014-Aug-22 02:28N 36°07' E 027°26'1212.6
2014-Aug-22 01:33N 36°16' E 027°17'2512.4
2014-Aug-21 23:30N 36°36' E 026°57'1213.0
2014-Aug-21 22:33N 36°47' E 026°50'1312.9
2014-Aug-21 21:32N 36°58' E 026°42'1212.5
2014-Aug-21 20:34N 37°09' E 026°34'1312.5
2014-Aug-21 19:34N 37°20' E 026°27'1312.4
2014-Aug-21 18:32N 37°32' E 026°22'1512.6
2014-Aug-21 17:20N 37°47' E 026°22'1013.5
2014-Aug-21 16:33N 37°57' E 026°18'6312.7
2014-Aug-21 11:33N 38°58' E 025°55'1312.6
2014-Aug-21 10:33N 39°09' E 025°48'1212.0
2014-Aug-21 09:34N 39°21' E 025°51'4012.8
2014-Aug-21 06:26N 39°59' E 026°08'2913.4
2014-Aug-21 04:17N 40°19' E 026°36'1012.9
2014-Aug-21 03:32N 40°26' E 026°45'1312.1
2014-Aug-21 02:26N 40°32' E 027°00'9012.5
2014-Aug-20 19:16N 40°57' E 028°54'3 1.4
2014-Aug-20 17:24N 40°59' E 028°55'0 0.0
2014-Aug-20 16:30N 40°59' E 028°55'1 0.7
2014-Aug-20 15:33N 40°59' E 028°56'11 8.8
2014-Aug-20 14:20N 41°08' E 029°04'  
2014-Aug-17 17:27N 40°59' E 028°56'0 0.0
2014-Aug-17 15:20N 40°59' E 028°56'0 0.0
2014-Aug-17 14:26N 40°59' E 028°56'0 0.0
2014-Aug-17 13:32N 40°59' E 028°56'2 2.1
2014-Aug-17 12:31N 40°57' E 028°57'6 6.5
2014-Aug-17 11:32N 40°52' E 029°01'7 6.6
2014-Aug-17 10:32N 40°50' E 029°10'5 5.5
2014-Aug-17 09:33N 40°51' E 029°17'0 0.0
2014-Aug-15 13:33N 40°51' E 029°17'0 0.0
2014-Aug-15 12:33N 40°51' E 029°17'2 0.1
2014-Aug-14 15:17N 40°49' E 029°18'0 0.0
2014-Aug-14 14:33N 40°49' E 029°18'2 0.3
2014-Aug-14 09:33N 40°51' E 029°17'0 0.0
2014-Aug-14 08:33N 40°51' E 029°17'  
Track history (hours):
 
Tides and Currents Weather Stations Pressure Air Temp Water Temp Dewpoint Dewpoint Depression Visibility Wind Speed Wind Dir Waves Ship Positions

Apus

Last reported at 2014-Aug-23 20:23 UTC. Time now 2014-Sep-02 02:07 UTC.
Position N 31°21' E 032°20'.
Warning: this ship's position is 9 days out of date.

Length 93 m; draft 6.2 m.

Type: Cargo ship. MMSI: 515102000.

Date/timePositionNaut miles runAvg speedWind from/ knotsBaromVisibWave heightAir tempDewpointWater temp
2014-Aug-23 20:23N 31°21' E 032°20'70 3.9
2014-Aug-23 02:29N 32°14' E 031°27'3812.3
2014-Aug-22 23:26N 32°43' E 030°58'5312.7
2014-Aug-22 19:17N 33°23' E 030°16'1013.4
2014-Aug-22 18:33N 33°30' E 030°09'19612.8
2014-Aug-22 03:15N 35°59' E 027°33'1013.1
2014-Aug-22 02:28N 36°07' E 027°26'1212.6
2014-Aug-22 01:33N 36°16' E 027°17'2512.4
2014-Aug-21 23:30N 36°36' E 026°57'1213.0
2014-Aug-21 22:33N 36°47' E 026°50'1312.9
2014-Aug-21 21:32N 36°58' E 026°42'1212.5
2014-Aug-21 20:34N 37°09' E 026°34'1312.5
2014-Aug-21 19:34N 37°20' E 026°27'1312.4
2014-Aug-21 18:32N 37°32' E 026°22'1512.6
2014-Aug-21 17:20N 37°47' E 026°22'1013.5
2014-Aug-21 16:33N 37°57' E 026°18'6312.7
2014-Aug-21 11:33N 38°58' E 025°55'1312.6
2014-Aug-21 10:33N 39°09' E 025°48'1212.0
2014-Aug-21 09:34N 39°21' E 025°51'4012.8
2014-Aug-21 06:26N 39°59' E 026°08'2913.4
2014-Aug-21 04:17N 40°19' E 026°36'1012.9
2014-Aug-21 03:32N 40°26' E 026°45'1312.1
2014-Aug-21 02:26N 40°32' E 027°00'9012.5
2014-Aug-20 19:16N 40°57' E 028°54'3 1.4
2014-Aug-20 17:24N 40°59' E 028°55'0 0.0
2014-Aug-20 16:30N 40°59' E 028°55'1 0.7
2014-Aug-20 15:33N 40°59' E 028°56'11 8.8
2014-Aug-20 14:20N 41°08' E 029°04'  
2014-Aug-17 17:27N 40°59' E 028°56'0 0.0
2014-Aug-17 15:20N 40°59' E 028°56'0 0.0
2014-Aug-17 14:26N 40°59' E 028°56'0 0.0
2014-Aug-17 13:32N 40°59' E 028°56'2 2.1
2014-Aug-17 12:31N 40°57' E 028°57'6 6.5
2014-Aug-17 11:32N 40°52' E 029°01'7 6.6
2014-Aug-17 10:32N 40°50' E 029°10'5 5.5
2014-Aug-17 09:33N 40°51' E 029°17'0 0.0
2014-Aug-15 13:33N 40°51' E 029°17'0 0.0
2014-Aug-15 12:33N 40°51' E 029°17'2 0.1
2014-Aug-14 15:17N 40°49' E 029°18'0 0.0
2014-Aug-14 14:33N 40°49' E 029°18'2 0.3
2014-Aug-14 09:33N 40°51' E 029°17'0 0.0
2014-Aug-14 08:33N 40°51' E 029°17'  

Dump ship's entire track history